Time;durP1;ratioP1;P1;durP2;ratioP2;P2;SDS_P1;SDS_P2;PMS_P1;PMS_P2;Temp;Humidity;BMP_temperature;BMP_pressure;BME280_temperature;BME280_humidity;BME280_pressure;Samples;Min_cycle;Max_cycle;Signal;HPM_P1;HPM_P2
2023/06/14 00:00:31;;;;;;;5.38;2.63;;;16.30;74.10;;;;;;6122599;23;20029;-63
2023/06/14 00:03:17;;;;;;;4.35;2.13;;;16.30;74.20;;;;;;6121532;23;20014;-62
2023/06/14 00:06:03;;;;;;;4.47;1.83;;;16.30;74.50;;;;;;6121618;23;20101;-63
2023/06/14 00:08:49;;;;;;;8.02;2.42;;;16.30;74.70;;;;;;6120858;23;20025;-64
2023/06/14 00:11:35;;;;;;;4.68;2.53;;;16.30;74.80;;;;;;6120933;23;20025;-63
2023/06/14 00:14:21;;;;;;;4.05;2.47;;;16.20;75.00;;;;;;6121902;23;20088;-64
2023/06/14 00:17:08;;;;;;;4.15;2.20;;;16.20;75.20;;;;;;6121004;23;20013;-63
2023/06/14 00:19:56;;;;;;;3.67;2.20;;;16.20;75.40;;;;;;6120448;23;20017;-64
2023/06/14 00:22:45;;;;;;;4.80;2.00;;;16.10;75.90;;;;;;6122588;23;20627;-63
2023/06/14 00:25:31;;;;;;;3.60;2.20;;;16.10;76.20;;;;;;6122480;23;20359;-64
2023/06/14 00:28:17;;;;;;;3.88;2.42;;;16.10;76.20;;;;;;6123003;23;20012;-63
2023/06/14 00:31:03;;;;;;;3.40;2.13;;;16.10;76.70;;;;;;6122410;23;20065;-63
2023/06/14 00:33:49;;;;;;;5.35;2.38;;;16.10;77.00;;;;;;6123589;23;20037;-63
2023/06/14 00:36:35;;;;;;;3.60;2.53;;;16.00;77.00;;;;;;6099028;23;20586;-64
2023/06/14 00:39:21;;;;;;;3.38;2.08;;;16.00;77.30;;;;;;6123188;23;20321;-64
2023/06/14 00:42:07;;;;;;;4.15;2.30;;;16.00;77.50;;;;;;6123648;23;20014;-63
2023/06/14 00:44:53;;;;;;;3.60;2.03;;;16.00;77.90;;;;;;6121434;23;20077;-64
2023/06/14 00:47:41;;;;;;;5.00;2.50;;;16.00;78.10;;;;;;6121238;23;20022;-64
2023/06/14 00:50:29;;;;;;;4.85;2.75;;;15.90;79.00;;;;;;6123455;23;20010;-63
2023/06/14 00:53:17;;;;;;;5.68;2.22;;;15.90;79.00;;;;;;6123585;23;20113;-64
2023/06/14 00:56:03;;;;;;;5.07;2.40;;;15.90;79.30;;;;;;6121291;23;20017;-64
2023/06/14 00:58:50;;;;;;;3.55;2.30;;;15.90;79.40;;;;;;6123185;23;20020;-65
2023/06/14 01:01:38;;;;;;;3.38;2.20;;;15.80;79.60;;;;;;6122018;23;20014;-64
2023/06/14 01:04:24;;;;;;;5.82;2.92;;;15.80;79.70;;;;;;6122003;23;20006;-64
2023/06/14 01:07:20;;;;;;;3.20;2.17;;;15.80;80.10;;;;;;6100573;23;20400;-63
2023/06/14 01:10:26;;;;;;;5.00;2.83;;;15.80;80.50;;;;;;6100890;23;20013;-62
2023/06/14 01:13:21;;;;;;;3.55;2.63;;;15.80;80.70;;;;;;6122627;23;20089;-62
2023/06/14 01:16:08;;;;;;;3.92;2.92;;;15.80;81.20;;;;;;6121835;23;20408;-62
2023/06/14 01:18:56;;;;;;;5.00;3.05;;;15.80;81.20;;;;;;6123315;23;20019;-62
2023/06/14 01:21:42;;;;;;;5.53;2.92;;;15.70;81.40;;;;;;6121211;23;20010;-61
2023/06/14 01:24:31;;;;;;;6.55;3.17;;;15.70;81.70;;;;;;6121629;23;20006;-62
2023/06/14 01:27:28;;;;;;;5.93;2.88;;;15.70;81.90;;;;;;6122141;23;20594;-61
2023/06/14 01:30:15;;;;;;;3.70;2.55;;;15.70;82.30;;;;;;6120777;23;20013;-62
2023/06/14 01:33:01;;;;;;;7.30;4.22;;;15.70;82.40;;;;;;6121950;23;20044;-62
2023/06/14 01:35:50;;;;;;;5.45;2.78;;;15.70;82.80;;;;;;6122454;23;20037;-62
2023/06/14 01:38:37;;;;;;;5.28;2.97;;;15.70;83.00;;;;;;6121719;23;20021;-62
2023/06/14 01:41:24;;;;;;;6.85;3.65;;;15.70;83.10;;;;;;6121368;23;20073;-62
2023/06/14 01:44:12;;;;;;;5.57;3.40;;;15.70;83.30;;;;;;6120415;23;20014;-62
2023/06/14 01:46:58;;;;;;;7.38;3.47;;;15.60;83.50;;;;;;6119129;23;20053;-62
2023/06/14 01:49:46;;;;;;;4.15;3.03;;;15.70;83.80;;;;;;6122752;23;20010;-62
2023/06/14 01:52:32;;;;;;;4.03;2.90;;;15.60;84.00;;;;;;6120546;23;20088;-63
2023/06/14 01:55:18;;;;;;;7.70;3.63;;;15.60;84.10;;;;;;6099517;23;20014;-62
2023/06/14 01:58:05;;;;;;;5.18;3.10;;;15.50;84.20;;;;;;6121237;23;20010;-62
2023/06/14 02:00:51;;;;;;;4.88;3.42;;;15.50;84.80;;;;;;6120649;23;20020;-67
2023/06/14 02:03:38;;;;;;;10.35;3.30;;;15.50;84.80;;;;;;6121254;23;20073;-67
2023/06/14 02:06:26;;;;;;;5.07;3.20;;;15.40;85.10;;;;;;6119236;23;20044;-67
2023/06/14 02:09:12;;;;;;;4.45;2.95;;;15.50;85.40;;;;;;6121826;23;20006;-67
2023/06/14 02:11:58;;;;;;;4.75;3.42;;;15.40;85.50;;;;;;6122435;23;20048;-67
2023/06/14 02:14:44;;;;;;;6.60;4.13;;;15.40;85.90;;;;;;6121880;23;20016;-67
2023/06/14 02:17:30;;;;;;;5.47;3.78;;;15.40;86.10;;;;;;6122025;23;20071;-68
2023/06/14 02:20:16;;;;;;;5.00;3.45;;;15.40;86.40;;;;;;6119962;23;20013;-67
2023/06/14 02:23:02;;;;;;;5.13;3.40;;;15.40;86.80;;;;;;6121898;23;20010;-66
2023/06/14 02:25:48;;;;;;;5.05;3.38;;;15.40;87.00;;;;;;6122924;23;20028;-69
2023/06/14 02:28:35;;;;;;;6.03;3.78;;;15.30;87.40;;;;;;6123696;23;20017;-70
2023/06/14 02:31:21;;;;;;;6.15;4.13;;;15.30;87.70;;;;;;6122561;23;20014;-70
2023/06/14 02:34:10;;;;;;;5.47;3.92;;;15.20;88.30;;;;;;6123339;23;20002;-69
2023/06/14 02:36:57;;;;;;;5.95;3.90;;;15.20;88.40;;;;;;6123296;23;20097;-70
2023/06/14 02:39:42;;;;;;;6.30;3.90;;;15.20;88.60;;;;;;6122865;23;20052;-69
2023/06/14 02:42:28;;;;;;;9.10;3.78;;;15.20;89.20;;;;;;6123447;23;20018;-69
2023/06/14 02:45:17;;;;;;;4.78;3.47;;;15.20;89.70;;;;;;6123383;23;20020;-71
2023/06/14 02:48:03;;;;;;;7.25;3.95;;;15.20;89.80;;;;;;6124290;23;20014;-70
2023/06/14 02:50:49;;;;;;;4.28;3.10;;;15.10;89.90;;;;;;6120910;23;20092;-70
2023/06/14 02:53:36;;;;;;;5.95;3.85;;;15.10;90.10;;;;;;6123919;23;20136;-70
2023/06/14 02:56:22;;;;;;;7.07;3.75;;;15.10;90.10;;;;;;6123468;23;20085;-70
2023/06/14 02:59:09;;;;;;;6.85;4.15;;;15.10;90.30;;;;;;6124029;23;20108;-69
2023/06/14 03:01:55;;;;;;;6.53;4.13;;;15.10;90.40;;;;;;6122704;23;20549;-71
2023/06/14 03:04:44;;;;;;;5.28;4.30;;;15.10;90.50;;;;;;6122158;23;20065;-70
2023/06/14 03:07:30;;;;;;;6.22;3.55;;;15.10;90.60;;;;;;6121896;23;20104;-70
2023/06/14 03:10:16;;;;;;;6.10;4.38;;;15.10;90.60;;;;;;6120867;23;20063;-71
2023/06/14 03:13:02;;;;;;;7.53;3.83;;;15.10;90.80;;;;;;6123241;23;20009;-69
2023/06/14 03:15:50;;;;;;;5.57;4.13;;;15.10;90.90;;;;;;6123910;23;20352;-70
2023/06/14 03:18:37;;;;;;;6.57;4.20;;;15.10;90.90;;;;;;6123592;23;20018;-70
2023/06/14 03:21:22;;;;;;;7.03;4.32;;;15.10;91.00;;;;;;6122650;23;20396;-70
2023/06/14 03:24:09;;;;;;;7.75;4.38;;;15.10;91.10;;;;;;6122564;23;20011;-70
2023/06/14 03:26:55;;;;;;;6.18;4.25;;;15.10;91.30;;;;;;6124361;23;20021;-70
2023/06/14 03:29:41;;;;;;;5.43;3.92;;;15.10;91.30;;;;;;6123013;23;20614;-70
2023/06/14 03:32:26;;;;;;;6.32;4.22;;;15.20;91.40;;;;;;6102141;23;20433;-70
2023/06/14 03:35:16;;;;;;;6.07;4.53;;;15.20;91.50;;;;;;6123305;23;20009;-69
2023/06/14 03:38:03;;;;;;;6.30;4.10;;;15.20;91.60;;;;;;6124827;23;20460;-71
2023/06/14 03:40:49;;;;;;;5.97;4.03;;;15.20;91.70;;;;;;6123065;23;20041;-71
2023/06/14 03:43:35;;;;;;;8.55;4.20;;;15.20;91.70;;;;;;6125366;23;20017;-71
2023/06/14 03:46:21;;;;;;;5.88;4.07;;;15.30;91.80;;;;;;6121884;23;20068;-71
2023/06/14 03:49:07;;;;;;;6.25;4.68;;;15.30;91.80;;;;;;6123568;23;20044;-71
2023/06/14 03:51:53;;;;;;;6.00;3.83;;;15.30;91.80;;;;;;6122207;23;20369;-71
2023/06/14 03:54:39;;;;;;;7.25;5.03;;;15.30;91.90;;;;;;6122673;23;20061;-71
2023/06/14 03:57:26;;;;;;;6.53;4.75;;;15.30;91.90;;;;;;6122271;23;20046;-72
2023/06/14 04:00:12;;;;;;;8.02;4.40;;;15.40;92.00;;;;;;6122430;23;20014;-71
2023/06/14 04:02:58;;;;;;;6.15;4.68;;;15.40;92.00;;;;;;6121905;23;20057;-71
2023/06/14 04:05:44;;;;;;;10.48;4.35;;;15.50;92.10;;;;;;6121974;23;20022;-71
2023/06/14 04:08:30;;;;;;;10.02;4.82;;;15.50;92.10;;;;;;6123070;23;20002;-70
2023/06/14 04:11:16;;;;;;;7.03;4.18;;;15.60;92.10;;;;;;6123415;23;20013;-70
2023/06/14 04:14:02;;;;;;;6.50;4.05;;;15.70;92.10;;;;;;6121816;23;20380;-70
2023/06/14 04:16:49;;;;;;;5.43;4.43;;;15.70;92.00;;;;;;6121714;23;20013;-71
2023/06/14 04:19:35;;;;;;;6.97;3.83;;;15.80;92.00;;;;;;6122713;23;20407;-72
2023/06/14 04:22:21;;;;;;;6.30;4.28;;;15.80;92.00;;;;;;6121211;23;20018;-72
2023/06/14 04:25:08;;;;;;;6.60;4.50;;;15.90;92.00;;;;;;6097887;23;20440;-72
2023/06/14 04:27:54;;;;;;;9.05;4.93;;;15.90;91.90;;;;;;6122786;23;20045;-72
2023/06/14 04:30:41;;;;;;;8.13;4.55;;;16.00;91.90;;;;;;6121042;23;20458;-74
2023/06/14 04:33:26;;;;;;;7.13;4.55;;;16.00;91.80;;;;;;6122781;23;20097;-75
2023/06/14 04:36:13;;;;;;;5.68;4.22;;;16.10;91.80;;;;;;6121802;23;20067;-74
2023/06/14 04:38:59;;;;;;;6.55;4.22;;;16.10;91.80;;;;;;6122974;23;20088;-74
2023/06/14 04:41:45;;;;;;;9.02;4.53;;;16.20;91.80;;;;;;6121878;23;20006;-63
2023/06/14 04:44:31;;;;;;;8.68;4.45;;;16.20;91.80;;;;;;6122627;23;20515;-70
2023/06/14 04:47:17;;;;;;;5.80;4.07;;;16.30;91.80;;;;;;6121710;23;20403;-66
2023/06/14 04:50:04;;;;;;;7.18;4.93;;;16.30;91.70;;;;;;6122013;23;20391;-68
2023/06/14 04:52:51;;;;;;;6.07;4.30;;;16.40;91.70;;;;;;6102296;23;20121;-67
2023/06/14 04:55:37;;;;;;;8.13;4.25;;;16.50;91.70;;;;;;6121601;23;20570;-65
2023/06/14 04:58:23;;;;;;;8.88;4.75;;;16.50;91.80;;;;;;6123549;23;20017;-66
2023/06/14 05:01:09;;;;;;;6.60;4.85;;;16.60;91.60;;;;;;6100278;23;20006;-67
2023/06/14 05:03:55;;;;;;;9.57;4.70;;;16.70;91.50;;;;;;6123340;23;20014;-65
2023/06/14 05:06:44;;;;;;;6.32;4.55;;;16.70;91.50;;;;;;6122006;23;20024;-65
2023/06/14 05:09:30;;;;;;;9.85;4.97;;;16.80;91.30;;;;;;6120436;23;20025;-65
2023/06/14 05:12:18;;;;;;;7.47;4.18;;;16.80;91.10;;;;;;6122067;23;20018;-64
2023/06/14 05:15:04;;;;;;;8.73;5.10;;;16.80;91.00;;;;;;6119703;23;20377;-64
2023/06/14 05:17:54;;;;;;;5.65;4.20;;;16.90;91.00;;;;;;6122497;23;20065;-64
2023/06/14 05:20:44;;;;;;;9.63;4.63;;;17.00;91.00;;;;;;6121727;23;20081;-64
2023/06/14 05:23:30;;;;;;;8.57;5.07;;;17.00;90.90;;;;;;6124118;23;20025;-64
2023/06/14 05:26:16;;;;;;;7.43;4.38;;;17.10;90.80;;;;;;6120877;23;20109;-64
2023/06/14 05:29:02;;;;;;;12.57;4.25;;;17.10;90.70;;;;;;6121684;23;20006;-63
2023/06/14 05:31:48;;;;;;;8.57;4.95;;;17.20;90.60;;;;;;6120985;23;20017;-64
2023/06/14 05:34:34;;;;;;;7.00;4.60;;;17.20;90.50;;;;;;6122863;23;20065;-64
2023/06/14 05:37:20;;;;;;;9.43;4.35;;;17.30;90.40;;;;;;6121815;23;20018;-64
2023/06/14 05:40:08;;;;;;;7.20;4.18;;;17.40;90.40;;;;;;6119777;23;20065;-64
2023/06/14 05:42:54;;;;;;;11.27;4.65;;;17.40;90.40;;;;;;6122412;23;20020;-66
2023/06/14 05:45:40;;;;;;;9.10;4.53;;;17.50;90.30;;;;;;6118976;23;20430;-66
2023/06/14 05:48:26;;;;;;;7.85;4.40;;;17.50;90.10;;;;;;6121291;23;20603;-66
2023/06/14 05:51:12;;;;;;;7.68;4.65;;;17.60;90.00;;;;;;6121795;23;20014;-66
2023/06/14 05:53:58;;;;;;;8.73;4.20;;;17.60;90.00;;;;;;6121806;23;20444;-66
2023/06/14 05:56:44;;;;;;;9.25;4.90;;;17.60;89.60;;;;;;6122650;23;20010;-65
2023/06/14 05:59:30;;;;;;;11.43;4.75;;;17.60;89.50;;;;;;6121638;23;20002;-70
2023/06/14 06:02:16;;;;;;;11.73;4.93;;;17.60;89.40;;;;;;6119682;23;20014;-70
2023/06/14 06:05:02;;;;;;;7.63;4.45;;;17.60;89.40;;;;;;6119775;23;20097;-70
2023/06/14 06:07:48;;;;;;;8.27;5.22;;;17.70;89.40;;;;;;6123000;23;20051;-70
2023/06/14 06:10:34;;;;;;;8.70;5.05;;;17.60;89.30;;;;;;6120652;23;20070;-70
2023/06/14 06:13:20;;;;;;;10.80;5.63;;;17.60;89.20;;;;;;6121793;23;20368;-70
2023/06/14 06:16:06;;;;;;;8.15;4.78;;;17.60;89.30;;;;;;6119864;23;20006;-70
2023/06/14 06:18:52;;;;;;;9.27;4.40;;;17.50;89.40;;;;;;6120446;23;20030;-70
2023/06/14 06:21:38;;;;;;;6.20;4.20;;;17.60;89.30;;;;;;6122112;23;20523;-70
2023/06/14 06:24:23;;;;;;;13.02;5.65;;;17.50;89.30;;;;;;6121535;23;20010;-70
2023/06/14 06:27:10;;;;;;;6.80;4.50;;;17.50;89.30;;;;;;6121879;23;20025;-70
2023/06/14 06:29:56;;;;;;;8.27;4.72;;;17.50;89.50;;;;;;6120791;23;20325;-70
2023/06/14 06:32:42;;;;;;;5.97;4.00;;;17.50;89.50;;;;;;6122462;23;20093;-70
2023/06/14 06:35:28;;;;;;;7.00;4.25;;;17.50;89.50;;;;;;6119374;23;20009;-71
2023/06/14 06:38:14;;;;;;;7.45;4.43;;;17.50;89.50;;;;;;6121196;23;20018;-71
2023/06/14 06:41:00;;;;;;;7.55;4.85;;;17.50;89.50;;;;;;6121227;23;20006;-70
2023/06/14 06:43:46;;;;;;;7.22;4.05;;;17.60;89.60;;;;;;6121620;23;20073;-71
2023/06/14 06:46:33;;;;;;;7.28;3.95;;;17.60;89.60;;;;;;6120109;23;20022;-73
2023/06/14 06:49:19;;;;;;;9.07;4.13;;;17.70;89.60;;;;;;6121059;23;20010;-72
2023/06/14 06:52:06;;;;;;;8.25;4.07;;;17.70;89.70;;;;;;6121578;23;20014;-72
2023/06/14 06:54:54;;;;;;;6.82;4.38;;;17.80;89.70;;;;;;6097821;23;20010;-73
2023/06/14 06:57:40;;;;;;;6.57;4.18;;;17.80;89.50;;;;;;6121871;23;20018;-73
2023/06/14 07:00:26;;;;;;;5.65;4.22;;;17.90;89.50;;;;;;6121120;23;20049;-72
2023/06/14 07:03:12;;;;;;;8.95;3.97;;;18.00;89.30;;;;;;6119108;23;20531;-74
2023/06/14 07:05:59;;;;;;;6.90;3.97;;;18.00;89.20;;;;;;6118665;23;20026;-72
2023/06/14 07:08:46;;;;;;;6.38;3.80;;;18.10;89.00;;;;;;6100630;23;20101;-72
2023/06/14 07:11:32;;;;;;;4.35;3.10;;;18.10;89.10;;;;;;6122260;23;20443;-73
2023/06/14 07:14:18;;;;;;;6.72;3.75;;;18.20;89.20;;;;;;6122545;23;20013;-71
2023/06/14 07:17:04;;;;;;;7.50;4.15;;;18.30;89.00;;;;;;6122682;23;20014;-70
2023/06/14 07:19:51;;;;;;;15.90;4.55;;;18.40;88.60;;;;;;6122965;23;20077;-72
2023/06/14 07:22:41;;;;;;;7.13;3.97;;;18.40;87.80;;;;;;6123761;23;20110;-72
2023/06/14 07:25:26;;;;;;;6.18;4.40;;;18.40;87.60;;;;;;6120166;23;20050;-72
2023/06/14 07:28:12;;;;;;;5.38;3.75;;;18.40;87.50;;;;;;6122339;23;20009;-73
2023/06/14 07:30:58;;;;;;;5.22;3.97;;;18.50;87.70;;;;;;6121715;23;20010;-71
2023/06/14 07:33:45;;;;;;;6.30;3.83;;;18.70;87.60;;;;;;6123534;23;20010;-73
2023/06/14 07:36:31;;;;;;;4.53;3.20;;;18.90;87.30;;;;;;6123434;23;20067;-74
2023/06/14 07:39:16;;;;;;;6.68;4.07;;;19.00;87.10;;;;;;6101647;23;20081;-72
2023/06/14 07:42:03;;;;;;;5.63;3.40;;;19.20;86.80;;;;;;6122760;23;20018;-73
2023/06/14 07:44:50;;;;;;;5.25;3.58;;;19.30;86.30;;;;;;6121244;23;20018;-71
2023/06/14 07:47:36;;;;;;;7.20;3.53;;;19.40;85.90;;;;;;6120520;23;20026;-74
2023/06/14 07:50:22;;;;;;;8.82;4.65;;;19.40;85.40;;;;;;6121046;23;20305;-73
2023/06/14 07:53:08;;;;;;;6.38;3.35;;;19.50;85.20;;;;;;6123407;23;20021;-73
2023/06/14 07:55:55;;;;;;;7.22;4.43;;;19.60;85.20;;;;;;6121884;23;20405;-71
2023/06/14 07:58:41;;;;;;;5.85;4.05;;;19.60;84.90;;;;;;6122936;23;20088;-74
2023/06/14 08:01:27;;;;;;;10.75;4.10;;;19.70;84.60;;;;;;6120368;23;20025;-73
2023/06/14 08:04:14;;;;;;;4.85;3.05;;;19.80;84.70;;;;;;6122669;23;20388;-72
2023/06/14 08:07:00;;;;;;;6.03;3.67;;;19.90;84.10;;;;;;6122214;23;20022;-72
2023/06/14 08:09:47;;;;;;;9.05;3.60;;;19.90;83.30;;;;;;6120187;23;20037;-72
2023/06/14 08:12:33;;;;;;;5.43;3.40;;;19.90;83.20;;;;;;6122116;23;20018;-74
2023/06/14 08:15:20;;;;;;;5.20;3.40;;;19.90;83.00;;;;;;6121961;23;20017;-73
2023/06/14 08:18:06;;;;;;;5.85;3.42;;;19.90;82.90;;;;;;6123416;23;20028;-74
2023/06/14 08:20:52;;;;;;;5.18;3.45;;;20.00;82.80;;;;;;6120472;23;20010;-74
2023/06/14 08:23:38;;;;;;;6.10;3.10;;;20.00;82.40;;;;;;6121130;23;20088;-73
2023/06/14 08:26:23;;;;;;;4.22;3.03;;;20.10;82.20;;;;;;6120354;23;20042;-73
2023/06/14 08:29:09;;;;;;;5.88;3.35;;;20.20;81.70;;;;;;6122671;23;20010;-73
2023/06/14 08:31:55;;;;;;;5.22;2.90;;;20.20;81.30;;;;;;6120725;23;20120;-74
2023/06/14 08:34:41;;;;;;;15.38;4.18;;;20.30;81.50;;;;;;6120967;23;20085;-74
2023/06/14 08:37:27;;;;;;;4.50;3.10;;;20.40;81.60;;;;;;6122235;23;20326;-72
2023/06/14 08:40:22;;;;;;;5.40;2.67;;;20.40;81.10;;;;;;6121819;23;20428;-72
2023/06/14 08:43:08;;;;;;;5.65;3.13;;;20.40;80.30;;;;;;6122458;23;20353;-74
2023/06/14 08:46:02;;;;;;;6.32;3.13;;;20.30;80.50;;;;;;6121140;23;20022;-73
2023/06/14 08:48:49;;;;;;;6.53;3.08;;;20.40;80.20;;;;;;6122795;23;20006;-74
2023/06/14 08:51:37;;;;;;;4.20;2.72;;;20.40;80.10;;;;;;6121009;23;20045;-72
2023/06/14 08:54:24;;;;;;;6.07;3.08;;;20.50;79.50;;;;;;6119355;23;20206;-73
2023/06/14 08:57:15;;;;;;;5.45;2.88;;;20.60;79.30;;;;;;6121927;23;20014;-73
2023/06/14 09:00:09;;;;;;;4.47;2.40;;;20.60;78.80;;;;;;6121202;23;20082;-73
2023/06/14 09:02:57;;;;;;;4.25;2.42;;;20.80;78.80;;;;;;6117883;23;20014;-71
2023/06/14 09:05:44;;;;;;;7.70;3.00;;;21.00;78.70;;;;;;6119945;23;20415;-72
2023/06/14 09:08:31;;;;;;;6.18;3.00;;;21.10;78.20;;;;;;6121030;23;20539;-72
2023/06/14 09:11:18;;;;;;;5.07;2.83;;;21.30;77.60;;;;;;6120150;23;20770;-72
2023/06/14 09:14:04;;;;;;;4.68;2.35;;;21.50;77.40;;;;;;6120130;23;20517;-72
2023/06/14 09:16:54;;;;;;;4.22;2.70;;;21.70;76.90;;;;;;6121702;23;20021;-72
2023/06/14 09:19:40;;;;;;;4.40;2.65;;;21.70;76.00;;;;;;6121813;23;20017;-70
2023/06/14 09:22:30;;;;;;;5.22;2.88;;;21.80;76.20;;;;;;6123366;23;20049;-73
2023/06/14 09:25:17;;;;;;;4.50;2.50;;;21.80;75.10;;;;;;6119106;23;20014;-73
2023/06/14 09:28:07;;;;;;;4.57;2.50;;;21.80;74.50;;;;;;6123069;23;20351;-73
2023/06/14 09:30:54;;;;;;;4.63;2.88;;;21.90;74.70;;;;;;6121276;23;20466;-73
2023/06/14 09:33:48;;;;;;;5.95;2.60;;;22.00;74.30;;;;;;6120972;23;20018;-73
2023/06/14 09:36:35;;;;;;;4.20;2.67;;;21.90;74.10;;;;;;6122161;23;20010;-74
2023/06/14 09:39:21;;;;;;;4.40;2.33;;;22.00;73.90;;;;;;6120783;23;20511;-73
2023/06/14 09:42:20;;;;;;;5.55;2.63;;;22.10;73.70;;;;;;6121247;23;20096;-67
2023/06/14 09:45:07;;;;;;;3.90;2.50;;;22.20;73.10;;;;;;6121497;23;20014;-71
2023/06/14 09:47:53;;;;;;;3.90;3.08;;;22.20;72.50;;;;;;6122366;23;20024;-72
2023/06/14 09:50:39;;;;;;;4.65;2.75;;;22.10;72.50;;;;;;6121409;23;20009;-72
2023/06/14 09:53:28;;;;;;;4.55;2.50;;;22.20;72.80;;;;;;6122905;23;20065;-71
2023/06/14 09:56:23;;;;;;;5.75;2.65;;;22.30;72.80;;;;;;6120287;23;20021;-71
2023/06/14 09:59:09;;;;;;;6.13;2.60;;;22.40;72.60;;;;;;6119841;23;20013;-68
2023/06/14 10:01:59;;;;;;;5.07;2.65;;;22.40;72.40;;;;;;6114708;23;20085;-64
2023/06/14 10:04:50;;;;;;;3.75;2.67;;;22.50;72.00;;;;;;6119918;23;20021;-68
2023/06/14 10:07:44;;;;;;;4.50;2.70;;;22.50;72.00;;;;;;6121826;23;20018;-69
2023/06/14 10:10:30;;;;;;;5.93;2.40;;;22.50;71.50;;;;;;6119554;23;20046;-70
2023/06/14 10:13:17;;;;;;;4.38;2.92;;;22.40;71.60;;;;;;6100969;23;20041;-70
2023/06/14 10:16:15;;;;;;;7.22;3.40;;;22.40;71.70;;;;;;6120931;23;20014;-70
2023/06/14 10:19:27;;;;;;;3.65;2.35;;;22.50;71.40;;;;;;6122026;23;20017;-70
2023/06/14 10:22:19;;;;;;;6.47;2.63;;;22.50;70.90;;;;;;6120790;23;20017;-70
2023/06/14 10:25:13;;;;;;;5.40;2.47;;;22.50;70.80;;;;;;6121103;23;20006;-69
2023/06/14 10:28:16;;;;;;;9.35;3.03;;;22.60;70.90;;;;;;6121903;23;20021;-71
2023/06/14 10:31:09;;;;;;;4.20;2.53;;;22.60;70.40;;;;;;6122077;23;20018;-70
2023/06/14 10:33:59;;;;;;;5.20;2.90;;;22.50;70.40;;;;;;6121902;23;20016;-70
2023/06/14 10:36:45;;;;;;;6.75;2.58;;;22.50;69.90;;;;;;6119186;23;20014;-71
2023/06/14 10:39:40;;;;;;;5.38;2.95;;;22.50;69.70;;;;;;6121511;23;20006;-70
2023/06/14 10:42:32;;;;;;;4.47;2.70;;;22.30;69.50;;;;;;6122145;23;20352;-69
2023/06/14 10:45:18;;;;;;;5.90;2.70;;;22.20;70.00;;;;;;6102007;23;20014;-69
2023/06/14 10:48:04;;;;;;;5.93;2.75;;;22.10;70.40;;;;;;6102408;23;20014;-70
2023/06/14 10:51:02;;;;;;;5.03;3.03;;;22.10;70.50;;;;;;6120566;23;20392;-69
2023/06/14 10:53:49;;;;;;;7.55;2.67;;;22.20;70.60;;;;;;6122681;23;20348;-70
2023/06/14 10:56:35;;;;;;;26.48;5.45;;;22.30;70.30;;;;;;6121962;23;20017;-69
2023/06/14 10:59:21;;;;;;;13.63;3.67;;;22.40;70.50;;;;;;6124042;23;20076;-70
2023/06/14 11:02:20;;;;;;;11.63;3.80;;;22.50;70.30;;;;;;6121414;23;20100;-70
2023/06/14 11:05:12;;;;;;;10.15;3.47;;;22.60;70.30;;;;;;6121818;23;20503;-70
2023/06/14 11:08:15;;;;;;;5.40;2.83;;;22.70;70.20;;;;;;6122047;23;20048;-69
2023/06/14 11:11:06;;;;;;;7.45;2.28;;;22.80;70.10;;;;;;6122685;23;20592;-70
2023/06/14 11:13:52;;;;;;;10.65;2.90;;;22.80;68.90;;;;;;6100378;23;20336;-70
2023/06/14 11:16:38;;;;;;;4.15;2.60;;;22.80;68.60;;;;;;6121929;23;20022;-69
2023/06/14 11:19:26;;;;;;;7.40;2.95;;;22.90;68.00;;;;;;6122556;23;20030;-70
2023/06/14 11:22:14;;;;;;;6.10;2.63;;;22.90;68.20;;;;;;6121354;23;20527;-67
2023/06/14 11:25:02;;;;;;;4.38;2.67;;;23.00;68.30;;;;;;6121434;23;20014;-66
2023/06/14 11:27:50;;;;;;;10.18;3.33;;;23.00;67.70;;;;;;6121682;23;20085;-67
2023/06/14 11:30:36;;;;;;;9.02;2.83;;;23.10;67.50;;;;;;6121288;23;20096;-66
2023/06/14 11:33:22;;;;;;;5.40;2.80;;;23.10;67.40;;;;;;6123169;23;20010;-67
2023/06/14 11:36:08;;;;;;;11.13;3.45;;;23.20;67.30;;;;;;6123103;23;20428;-67
2023/06/14 11:39:02;;;;;;;9.02;3.03;;;23.20;66.90;;;;;;6123149;23;20006;-70
2023/06/14 11:41:48;;;;;;;9.93;3.07;;;23.30;66.90;;;;;;6121451;23;20018;-70
2023/06/14 11:44:34;;;;;;;5.07;2.78;;;23.40;66.60;;;;;;6123020;23;20014;-69
2023/06/14 11:47:21;;;;;;;13.23;3.55;;;23.40;66.70;;;;;;6123750;23;20025;-69
2023/06/14 11:50:09;;;;;;;6.95;2.63;;;23.50;67.30;;;;;;6122698;23;20010;-70
2023/06/14 11:52:56;;;;;;;6.47;2.95;;;23.60;66.40;;;;;;6121001;23;20036;-69
2023/06/14 11:55:44;;;;;;;7.45;2.90;;;23.70;65.60;;;;;;6119865;23;20010;-69
2023/06/14 11:58:30;;;;;;;10.93;3.05;;;23.70;66.10;;;;;;6121181;23;20149;-70
2023/06/14 12:01:18;;;;;;;5.72;2.95;;;23.70;65.70;;;;;;6121316;23;20020;-69
2023/06/14 12:04:05;;;;;;;10.02;2.88;;;23.70;65.00;;;;;;6122781;23;20013;-70
2023/06/14 12:06:53;;;;;;;8.27;2.75;;;23.70;64.70;;;;;;6123244;23;20060;-69
2023/06/14 12:09:39;;;;;;;5.80;2.58;;;23.60;63.90;;;;;;6121820;23;20010;-68
2023/06/14 12:12:25;;;;;;;11.52;3.20;;;23.60;64.60;;;;;;6123141;23;20090;-69
2023/06/14 12:15:11;;;;;;;11.38;3.50;;;23.70;64.50;;;;;;6122950;23;20010;-69
2023/06/14 12:17:58;;;;;;;7.35;2.92;;;23.80;63.60;;;;;;6101185;23;20032;-70
2023/06/14 12:20:50;;;;;;;5.68;2.75;;;23.80;63.60;;;;;;6122880;23;20021;-67
2023/06/14 12:23:43;;;;;;;4.75;2.90;;;23.80;63.60;;;;;;6124132;23;20010;-68
2023/06/14 12:26:29;;;;;;;5.72;2.83;;;23.80;63.00;;;;;;6120464;23;20416;-69
2023/06/14 12:29:15;;;;;;;4.90;2.25;;;23.80;63.10;;;;;;6121157;23;20038;-69
2023/06/14 12:32:01;;;;;;;4.38;2.92;;;23.80;63.00;;;;;;6100695;23;20384;-68
2023/06/14 12:34:49;;;;;;;5.15;2.60;;;23.90;62.80;;;;;;6121553;23;20010;-73
2023/06/14 12:37:35;;;;;;;4.90;2.30;;;23.90;63.00;;;;;;6122186;23;20052;-68
2023/06/14 12:40:21;;;;;;;6.82;2.95;;;24.00;62.10;;;;;;6122894;23;20010;-69
2023/06/14 12:43:07;;;;;;;6.93;2.50;;;24.10;61.50;;;;;;6122435;23;20009;-68
2023/06/14 12:45:53;;;;;;;7.53;2.72;;;24.20;61.00;;;;;;6121567;23;20032;-69
2023/06/14 12:48:39;;;;;;;9.15;3.00;;;24.30;60.80;;;;;;6121630;23;20014;-69
2023/06/14 12:51:25;;;;;;;5.50;2.25;;;24.40;60.30;;;;;;6122404;23;20013;-68
2023/06/14 12:54:12;;;;;;;9.15;3.10;;;24.50;59.60;;;;;;6123080;23;20017;-69
2023/06/14 12:56:58;;;;;;;9.45;3.17;;;24.70;59.20;;;;;;6122574;23;20652;-69
2023/06/14 12:59:43;;;;;;;5.38;2.13;;;24.90;58.50;;;;;;6121893;23;20013;-68
2023/06/14 13:02:29;;;;;;;8.98;3.08;;;25.00;58.10;;;;;;6120253;23;20041;-70
2023/06/14 13:05:15;;;;;;;5.55;2.83;;;25.10;57.10;;;;;;6119386;23;20009;-65
2023/06/14 13:08:01;;;;;;;6.22;2.45;;;25.30;56.50;;;;;;6117176;23;20029;-65
2023/06/14 13:10:47;;;;;;;7.55;3.20;;;25.40;56.40;;;;;;6119429;23;20013;-65
2023/06/14 13:13:33;;;;;;;4.38;2.50;;;25.50;56.00;;;;;;6121047;23;20014;-67
2023/06/14 13:16:19;;;;;;;4.65;2.20;;;25.60;55.80;;;;;;6098460;23;20022;-66
2023/06/14 13:19:05;;;;;;;5.63;2.70;;;25.50;54.40;;;;;;6119771;23;20029;-66
2023/06/14 13:21:51;;;;;;;7.05;2.28;;;25.50;54.40;;;;;;6100110;23;20089;-64
2023/06/14 13:24:37;;;;;;;5.57;2.30;;;25.50;54.40;;;;;;6121863;23;20241;-63
2023/06/14 13:27:24;;;;;;;3.97;2.13;;;25.40;54.20;;;;;;6121830;23;20022;-65
2023/06/14 13:30:11;;;;;;;6.05;2.97;;;25.50;54.30;;;;;;6122633;23;20010;-65
2023/06/14 13:32:57;;;;;;;11.43;2.47;;;25.60;54.20;;;;;;6121713;23;20041;-64
2023/06/14 13:35:43;;;;;;;7.07;2.55;;;25.70;54.60;;;;;;6119952;23;20033;-65
2023/06/14 13:38:29;;;;;;;8.30;3.00;;;25.60;53.90;;;;;;6099444;23;20020;-64
2023/06/14 13:41:15;;;;;;;4.68;2.50;;;25.60;54.10;;;;;;6121121;23;20013;-65
2023/06/14 13:44:03;;;;;;;9.45;2.75;;;25.70;53.70;;;;;;6120812;23;20021;-65
2023/06/14 13:46:49;;;;;;;8.05;2.47;;;25.80;54.40;;;;;;6121698;23;20407;-65
2023/06/14 13:49:35;;;;;;;7.85;3.13;;;25.90;54.00;;;;;;6120214;23;20089;-64
2023/06/14 13:52:22;;;;;;;6.47;2.30;;;26.00;54.40;;;;;;6120417;23;20458;-66
2023/06/14 13:55:09;;;;;;;5.78;2.97;;;26.20;54.80;;;;;;6120534;23;20440;-64
2023/06/14 13:57:56;;;;;;;6.45;2.78;;;26.40;53.70;;;;;;6121715;23;20014;-65
2023/06/14 14:00:42;;;;;;;6.80;2.53;;;26.40;53.60;;;;;;6120201;23;20048;-65
2023/06/14 14:03:28;;;;;;;6.35;2.75;;;26.50;53.60;;;;;;6100045;23;20017;-65
2023/06/14 14:06:14;;;;;;;7.57;2.90;;;26.60;53.90;;;;;;6121670;23;20033;-65
2023/06/14 14:09:00;;;;;;;5.47;2.33;;;26.70;53.50;;;;;;6121488;23;20440;-66
2023/06/14 14:11:48;;;;;;;6.68;2.58;;;26.70;53.10;;;;;;6118564;23;20013;-64
2023/06/14 14:14:35;;;;;;;6.53;2.67;;;26.70;52.70;;;;;;6121879;23;20014;-68
2023/06/14 14:17:21;;;;;;;3.05;2.03;;;26.60;52.50;;;;;;6119817;23;20018;-67
2023/06/14 14:20:07;;;;;;;6.07;3.10;;;26.50;52.90;;;;;;6123451;23;20065;-69
2023/06/14 14:22:53;;;;;;;8.15;3.08;;;26.50;53.30;;;;;;6122780;23;20014;-69
2023/06/14 14:25:39;;;;;;;5.40;2.60;;;26.50;53.30;;;;;;6121579;23;20467;-69
2023/06/14 14:28:25;;;;;;;5.15;2.90;;;26.40;52.40;;;;;;6120436;23;20056;-68